Time;durP1;ratioP1;P1;durP2;ratioP2;P2;SDS_P1;SDS_P2;PMS_P1;PMS_P2;Temp;Humidity;BMP_temperature;BMP_pressure;BME280_temperature;BME280_humidity;BME280_pressure;Samples;Min_cycle;Max_cycle;Signal;HPM_P1;HPM_P2
2021/04/30 00:02:41;;;;;;;2.45;1.50;;;17.70;56.10;;;;;;10500518;28;20041;-61
2021/04/30 00:07:42;;;;;;;2.60;1.60;;;17.70;56.10;;;;;;10500214;28;20025;-61
2021/04/30 00:12:43;;;;;;;3.80;1.98;;;17.70;56.00;;;;;;10499906;28;20032;-61
2021/04/30 00:17:44;;;;;;;2.42;1.60;;;17.70;56.00;;;;;;10482084;28;20388;-61
2021/04/30 00:22:44;;;;;;;2.83;1.30;;;17.70;56.00;;;;;;10499570;28;20032;-61
2021/04/30 00:27:45;;;;;;;2.35;1.15;;;17.70;55.90;;;;;;10499469;28;20027;-61
2021/04/30 00:32:46;;;;;;;3.40;1.60;;;17.70;55.90;;;;;;10481332;28;20055;-61
2021/04/30 00:37:47;;;;;;;2.72;1.00;;;17.70;55.90;;;;;;10498923;28;20060;-61
2021/04/30 00:42:53;;;;;;;2.42;1.13;;;17.70;55.80;;;;;;10499020;28;20035;-61
2021/04/30 00:47:54;;;;;;;1.80;1.15;;;17.70;55.80;;;;;;10498454;28;20039;-61
2021/04/30 00:52:56;;;;;;;2.00;1.00;;;17.70;55.80;;;;;;10498316;28;20024;-61
2021/04/30 00:58:02;;;;;;;2.88;1.70;;;17.70;55.80;;;;;;10498450;28;20035;-61
2021/04/30 01:03:08;;;;;;;3.80;1.70;;;17.70;55.80;;;;;;10497842;28;20059;-61
2021/04/30 01:08:08;;;;;;;4.88;1.90;;;17.70;56.40;;;;;;10479318;28;20044;-61
2021/04/30 01:13:13;;;;;;;4.53;1.98;;;17.70;55.80;;;;;;10497846;28;20020;-61
2021/04/30 01:18:13;;;;;;;3.45;1.40;;;17.70;56.10;;;;;;10497881;28;20044;-61
2021/04/30 01:23:14;;;;;;;2.92;1.52;;;17.70;55.80;;;;;;10497594;28;20107;-61
2021/04/30 01:28:15;;;;;;;2.47;1.35;;;17.70;55.80;;;;;;10497259;28;20040;-61
2021/04/30 01:33:19;;;;;;;2.80;1.33;;;17.70;55.80;;;;;;10497485;28;20083;-61
2021/04/30 01:38:19;;;;;;;1.88;1.15;;;17.70;55.80;;;;;;10498029;28;20504;-61
2021/04/30 01:43:22;;;;;;;2.70;1.55;;;17.70;55.80;;;;;;10497232;28;20032;-61
2021/04/30 01:48:28;;;;;;;1.98;1.30;;;17.70;55.80;;;;;;10496797;28;20129;-61
2021/04/30 01:53:33;;;;;;;2.47;1.13;;;17.70;55.80;;;;;;10497141;28;20075;-61
2021/04/30 01:58:34;;;;;;;1.45;0.70;;;17.60;55.70;;;;;;10496912;28;20036;-62
2021/04/30 02:03:35;;;;;;;3.90;1.70;;;17.70;55.80;;;;;;10473123;28;20384;-61
2021/04/30 02:08:36;;;;;;;2.35;1.30;;;17.70;55.80;;;;;;10478738;28;20112;-61
2021/04/30 02:13:37;;;;;;;1.55;0.85;;;17.60;55.70;;;;;;10475433;28;20027;-61
2021/04/30 02:18:37;;;;;;;1.92;1.20;;;17.60;55.70;;;;;;10498792;28;20028;-61
2021/04/30 02:23:38;;;;;;;2.38;1.35;;;17.60;55.70;;;;;;10504733;28;20107;-62
2021/04/30 02:28:39;;;;;;;2.78;1.15;;;17.60;55.70;;;;;;10504216;28;20032;-61
2021/04/30 02:33:44;;;;;;;2.45;1.33;;;17.60;55.70;;;;;;10517773;28;20115;-61
2021/04/30 02:38:45;;;;;;;3.08;1.30;;;17.60;55.70;;;;;;10486098;28;20035;-61
2021/04/30 02:43:45;;;;;;;2.45;1.30;;;17.70;55.80;;;;;;10503320;28;20487;-62
2021/04/30 02:48:48;;;;;;;1.98;1.15;;;17.60;55.70;;;;;;10502330;28;20035;-61
2021/04/30 02:53:48;;;;;;;1.85;1.15;;;17.60;55.70;;;;;;10485347;28;20028;-62
2021/04/30 02:58:53;;;;;;;3.15;1.13;;;17.60;55.70;;;;;;10503195;28;20111;-61
2021/04/30 03:03:54;;;;;;;1.75;1.10;;;17.60;55.70;;;;;;10502989;28;20024;-61
2021/04/30 03:08:56;;;;;;;2.03;1.15;;;17.60;55.70;;;;;;10501582;28;20111;-61
2021/04/30 03:13:56;;;;;;;1.95;1.23;;;17.60;55.70;;;;;;10484480;28;20039;-61
2021/04/30 03:18:57;;;;;;;4.65;1.40;;;17.60;55.70;;;;;;10502738;28;20099;-61
2021/04/30 03:23:58;;;;;;;2.03;1.30;;;17.70;55.80;;;;;;10502136;28;20521;-61
2021/04/30 03:29:00;;;;;;;1.80;1.15;;;17.60;55.70;;;;;;10501284;28;20032;-61
2021/04/30 03:34:00;;;;;;;1.73;1.20;;;17.60;55.70;;;;;;10501697;28;20056;-61
2021/04/30 03:39:02;;;;;;;2.38;1.40;;;17.70;55.90;;;;;;10483768;28;20040;-61
2021/04/30 03:44:03;;;;;;;1.60;1.38;;;17.60;55.80;;;;;;10501459;28;20044;-61
2021/04/30 03:49:05;;;;;;;2.03;1.27;;;17.60;55.70;;;;;;10501309;28;20032;-62
2021/04/30 03:54:06;;;;;;;2.47;1.40;;;17.70;55.80;;;;;;10501058;28;20028;-61
2021/04/30 03:59:06;;;;;;;2.45;1.00;;;17.70;55.80;;;;;;10482942;28;20048;-61
2021/04/30 04:04:07;;;;;;;1.58;1.00;;;17.70;55.80;;;;;;10500718;28;20099;-61
2021/04/30 04:09:08;;;;;;;3.00;1.58;;;17.70;55.80;;;;;;10500286;28;20115;-62
2021/04/30 04:14:09;;;;;;;1.45;1.15;;;17.70;55.80;;;;;;10500234;28;20031;-61
2021/04/30 04:19:10;;;;;;;2.60;1.40;;;17.70;55.80;;;;;;10481104;28;20040;-61
2021/04/30 04:24:11;;;;;;;2.78;1.30;;;17.70;55.80;;;;;;10477859;28;20033;-61
2021/04/30 04:29:11;;;;;;;2.17;1.20;;;17.70;55.80;;;;;;10501144;28;20444;-60
2021/04/30 04:34:12;;;;;;;2.22;1.30;;;17.70;56.00;;;;;;10509255;28;20122;-61
2021/04/30 04:39:13;;;;;;;3.60;2.00;;;17.70;56.20;;;;;;10498497;28;20163;-61
2021/04/30 04:44:14;;;;;;;3.00;1.60;;;17.60;56.00;;;;;;10498515;28;20468;-60
2021/04/30 04:49:15;;;;;;;10.20;2.10;;;17.60;56.10;;;;;;10512428;28;20082;-60
2021/04/30 04:54:15;;;;;;;3.33;1.40;;;17.60;56.10;;;;;;10480690;28;20027;-60
2021/04/30 04:59:16;;;;;;;4.03;1.60;;;17.60;56.00;;;;;;10498408;28;20040;-60
2021/04/30 05:04:18;;;;;;;5.53;1.80;;;17.60;56.00;;;;;;10498369;28;20037;-63
2021/04/30 05:09:18;;;;;;;5.95;1.58;;;17.60;56.40;;;;;;10468300;28;20031;-63
2021/04/30 05:14:20;;;;;;;3.35;1.50;;;17.60;57.10;;;;;;10480129;28;20024;-60
2021/04/30 05:19:20;;;;;;;5.85;1.98;;;17.60;57.90;;;;;;10497563;28;20027;-62
2021/04/30 05:24:21;;;;;;;7.78;1.60;;;17.60;57.90;;;;;;10497702;28;20112;-60
2021/04/30 05:29:22;;;;;;;3.60;1.52;;;17.60;58.40;;;;;;10479213;28;20047;-61
2021/04/30 05:34:23;;;;;;;10.45;1.70;;;17.60;58.50;;;;;;10496539;28;20506;-63
2021/04/30 05:39:23;;;;;;;15.95;2.22;;;17.60;58.30;;;;;;10496137;28;20039;-65
2021/04/30 05:44:24;;;;;;;22.98;2.97;;;17.60;58.60;;;;;;10496986;28;20044;-59
2021/04/30 05:49:26;;;;;;;22.73;2.53;;;17.60;59.20;;;;;;10478722;28;20032;-65
2021/04/30 05:54:27;;;;;;;9.15;2.95;;;17.60;59.00;;;;;;10504434;28;20762;-64
2021/04/30 05:59:28;;;;;;;12.43;2.78;;;17.60;59.50;;;;;;10508593;28;20028;-68
2021/04/30 06:04:29;;;;;;;22.27;2.83;;;17.60;59.60;;;;;;10492037;28;20469;-69
2021/04/30 06:09:30;;;;;;;14.90;3.55;;;17.60;59.00;;;;;;10481463;28;20511;-70
2021/04/30 06:14:32;;;;;;;12.68;2.63;;;17.70;58.80;;;;;;10510306;28;20108;-72
2021/04/30 06:19:34;;;;;;;15.07;3.45;;;17.70;58.30;;;;;;10510263;28;20066;-72
2021/04/30 06:24:34;;;;;;;13.10;2.67;;;17.80;57.90;;;;;;10510053;28;20028;-68
2021/04/30 06:29:35;;;;;;;16.70;2.78;;;17.90;57.70;;;;;;10492308;28;20037;-69
2021/04/30 06:34:36;;;;;;;11.77;2.65;;;18.00;57.40;;;;;;10491993;28;20136;-68
2021/04/30 06:39:37;;;;;;;13.35;3.28;;;18.00;57.20;;;;;;10509916;28;20124;-67
2021/04/30 06:44:38;;;;;;;12.18;2.53;;;18.00;56.80;;;;;;10491655;28;20048;-67
2021/04/30 06:49:39;;;;;;;12.77;3.63;;;18.10;56.60;;;;;;10519718;28;20103;-68
2021/04/30 06:54:40;;;;;;;14.40;4.78;;;18.10;56.50;;;;;;10494760;28;20016;-70
2021/04/30 06:59:40;;;;;;;11.45;3.50;;;18.00;56.20;;;;;;10491652;28;20115;-70
2021/04/30 07:04:41;;;;;;;10.55;3.30;;;18.10;56.10;;;;;;10507257;28;20146;-70
2021/04/30 07:09:42;;;;;;;10.95;3.35;;;18.10;56.60;;;;;;10502551;28;20119;-71
2021/04/30 07:14:42;;;;;;;11.15;4.13;;;18.20;56.00;;;;;;10484694;28;20476;-71
2021/04/30 07:19:43;;;;;;;11.40;4.43;;;18.20;56.00;;;;;;10484557;28;20024;-66
2021/04/30 07:24:45;;;;;;;13.55;4.25;;;18.10;56.30;;;;;;10483099;28;20032;-64
2021/04/30 07:29:46;;;;;;;11.55;4.47;;;18.10;57.20;;;;;;10500478;28;20028;-59
2021/04/30 07:34:47;;;;;;;11.80;4.10;;;18.10;59.00;;;;;;10501423;28;20069;-62
2021/04/30 07:39:47;;;;;;;13.48;4.57;;;18.20;58.70;;;;;;10483378;28;20033;-66
2021/04/30 07:44:48;;;;;;;14.02;5.38;;;18.20;59.80;;;;;;10500897;28;20043;-64
2021/04/30 07:49:49;;;;;;;12.30;4.00;;;18.20;59.30;;;;;;10483302;28;20480;-63
2021/04/30 07:54:50;;;;;;;15.05;4.60;;;18.20;59.10;;;;;;10500501;28;20108;-63
2021/04/30 07:59:50;;;;;;;15.85;5.32;;;18.30;59.30;;;;;;10482947;28;20024;-64
2021/04/30 08:04:51;;;;;;;19.90;5.72;;;18.40;58.90;;;;;;10500619;28;20034;-64
2021/04/30 08:09:55;;;;;;;12.38;5.07;;;18.40;58.20;;;;;;10499194;28;20139;-65
2021/04/30 08:14:56;;;;;;;21.13;6.85;;;18.40;57.90;;;;;;10499213;28;20028;-66
2021/04/30 08:19:58;;;;;;;12.88;5.00;;;18.40;57.60;;;;;;10481882;28;20078;-66
2021/04/30 08:24:59;;;;;;;13.18;4.45;;;18.50;57.40;;;;;;10500188;28;20028;-66
2021/04/30 08:30:00;;;;;;;13.40;5.18;;;18.50;57.40;;;;;;10499554;28;20181;-66
2021/04/30 08:35:01;;;;;;;11.30;5.07;;;18.50;57.20;;;;;;10481560;28;20362;-66
2021/04/30 08:40:03;;;;;;;9.38;4.50;;;18.50;57.10;;;;;;10481550;28;20432;-65
2021/04/30 08:45:07;;;;;;;9.30;4.20;;;18.50;57.00;;;;;;10498584;28;20029;-66
2021/04/30 08:50:08;;;;;;;9.00;3.22;;;18.60;56.90;;;;;;10498141;28;20047;-66
2021/04/30 08:55:14;;;;;;;11.80;3.75;;;18.60;56.80;;;;;;10480693;28;20024;-61
2021/04/30 09:00:16;;;;;;;12.30;3.58;;;18.60;56.70;;;;;;10480494;28;20423;-66
2021/04/30 09:05:27;;;;;;;14.73;5.28;;;18.60;57.00;;;;;;10498183;28;20028;-59
2021/04/30 09:10:41;;;;;;;9.43;4.03;;;18.60;57.50;;;;;;10497768;28;20089;-59
2021/04/30 09:15:45;;;;;;;9.98;4.57;;;18.60;57.70;;;;;;10480954;28;20384;-58
2021/04/30 09:20:48;;;;;;;13.32;4.65;;;18.60;58.40;;;;;;10510180;28;20032;-61
2021/04/30 09:25:49;;;;;;;10.32;4.70;;;18.70;59.40;;;;;;10497032;28;20021;-59
2021/04/30 09:30:51;;;;;;;10.13;4.63;;;18.60;58.40;;;;;;10491443;28;20036;-58
2021/04/30 09:35:58;;;;;;;10.70;4.18;;;18.60;59.40;;;;;;10496773;28;20032;-58
2021/04/30 09:41:12;;;;;;;11.40;4.72;;;18.70;59.80;;;;;;10496706;28;20021;-59
2021/04/30 09:46:33;;;;;;;12.30;4.63;;;18.70;58.90;;;;;;10496175;28;20044;-60
2021/04/30 09:51:41;;;;;;;12.25;4.50;;;18.70;58.70;;;;;;10496545;28;20429;-63
2021/04/30 09:56:42;;;;;;;10.10;4.13;;;18.70;58.90;;;;;;10496300;28;20028;-65
2021/04/30 10:01:43;;;;;;;16.40;5.68;;;18.70;58.80;;;;;;10496362;28;20400;-63
2021/04/30 10:06:54;;;;;;;19.15;5.30;;;18.70;58.90;;;;;;10496561;28;20104;-62
2021/04/30 10:11:55;;;;;;;7.00;3.70;;;18.70;58.60;;;;;;10473920;28;20369;-60
2021/04/30 10:16:56;;;;;;;12.25;5.22;;;18.70;58.30;;;;;;10496538;28;20455;-61
2021/04/30 10:21:56;;;;;;;14.07;4.75;;;18.70;58.10;;;;;;10496391;28;20116;-61
2021/04/30 10:26:57;;;;;;;17.98;5.35;;;18.70;58.70;;;;;;10478480;28;20095;-61
2021/04/30 10:32:00;;;;;;;12.45;4.20;;;18.70;59.50;;;;;;10478281;28;20028;-61
2021/04/30 10:37:03;;;;;;;13.98;4.72;;;18.80;59.80;;;;;;10495978;28;20057;-63
2021/04/30 10:42:13;;;;;;;17.60;5.32;;;18.80;60.10;;;;;;10484819;28;20032;-63
2021/04/30 10:47:16;;;;;;;15.27;5.30;;;18.80;60.20;;;;;;10503439;28;20119;-63
2021/04/30 10:52:20;;;;;;;23.52;5.53;;;18.80;60.60;;;;;;10503518;28;20024;-60
2021/04/30 10:57:20;;;;;;;26.33;6.57;;;18.80;61.10;;;;;;10502903;28;20082;-61
2021/04/30 11:02:44;;;;;;;22.92;6.28;;;18.70;61.20;;;;;;10503102;28;20054;-64
2021/04/30 11:07:53;;;;;;;41.65;6.82;;;18.70;60.60;;;;;;10502915;28;20028;-63
2021/04/30 11:13:18;;;;;;;16.50;4.95;;;18.70;60.70;;;;;;10502905;28;20035;-63
2021/04/30 11:18:29;;;;;;;26.95;5.55;;;18.70;60.60;;;;;;10485485;28;20028;-58
2021/04/30 11:23:42;;;;;;;24.30;6.95;;;18.70;60.50;;;;;;10502362;28;20476;-60
2021/04/30 11:28:42;;;;;;;19.80;5.88;;;18.70;61.40;;;;;;10484526;28;20115;-59
2021/04/30 11:34:08;;;;;;;33.53;7.68;;;18.70;61.10;;;;;;10500615;28;20574;-63
2021/04/30 11:39:22;;;;;;;27.83;6.88;;;18.60;61.00;;;;;;10500550;28;20136;-62
2021/04/30 11:44:23;;;;;;;32.50;6.85;;;18.60;61.20;;;;;;10509065;28;20134;-61
2021/04/30 11:49:23;;;;;;;35.38;7.47;;;18.60;61.10;;;;;;10489405;28;20028;-68
2021/04/30 11:54:33;;;;;;;21.05;6.90;;;18.60;60.70;;;;;;10500190;28;20052;-61
2021/04/30 11:59:35;;;;;;;;;;;18.50;60.50;;;;;;10501407;28;20028;-58
2021/04/30 12:04:46;;;;;;;26.90;6.30;;;18.50;60.80;;;;;;10500863;28;19908;-60
2021/04/30 12:09:48;;;;;;;40.22;8.32;;;18.50;61.10;;;;;;10500511;28;20032;-58
2021/04/30 12:14:56;;;;;;;28.77;7.05;;;18.50;60.70;;;;;;10497874;28;20025;-58
2021/04/30 12:20:01;;;;;;;26.60;6.75;;;18.50;60.40;;;;;;10499845;28;20338;-58
2021/04/30 12:25:23;;;;;;;31.63;7.10;;;18.50;60.70;;;;;;10497563;28;20508;-57
2021/04/30 12:30:30;;;;;;;32.85;6.95;;;18.50;60.40;;;;;;10497308;28;20027;-60
2021/04/30 12:35:31;;;;;;;21.77;6.63;;;18.50;59.90;;;;;;10498776;28;20029;-59
2021/04/30 12:40:32;;;;;;;21.33;6.70;;;18.50;59.40;;;;;;10496622;28;20473;-61
2021/04/30 12:45:33;;;;;;;16.98;5.55;;;18.50;59.40;;;;;;10498666;28;20523;-59
2021/04/30 12:50:34;;;;;;;31.48;6.60;;;18.50;59.70;;;;;;10512083;28;20033;-57
2021/04/30 12:55:40;;;;;;;16.08;5.05;;;18.50;59.20;;;;;;10480485;28;20035;-58
2021/04/30 13:01:05;;;;;;;15.63;6.22;;;18.50;59.00;;;;;;10498607;28;20048;-61
2021/04/30 13:06:09;;;;;;;26.95;6.85;;;18.50;59.30;;;;;;10468581;28;20025;-62
2021/04/30 13:11:15;;;;;;;16.33;4.93;;;18.50;59.30;;;;;;10497080;28;20034;-61
2021/04/30 13:16:16;;;;;;;16.40;5.97;;;18.40;59.30;;;;;;10497854;28;20029;-59
2021/04/30 13:21:17;;;;;;;14.48;5.22;;;18.40;59.20;;;;;;10497666;28;20025;-61
2021/04/30 13:26:24;;;;;;;15.50;5.75;;;18.40;59.20;;;;;;10456191;28;20116;-62
2021/04/30 13:31:24;;;;;;;14.43;5.60;;;18.30;58.70;;;;;;10497542;28;20029;-62
2021/04/30 13:36:25;;;;;;;14.95;4.85;;;18.30;58.70;;;;;;10479537;28;20025;-61
2021/04/30 13:41:35;;;;;;;18.50;7.18;;;18.30;59.00;;;;;;10479308;28;20038;-60
2021/04/30 13:46:36;;;;;;;32.05;7.65;;;18.40;58.70;;;;;;10494502;28;20481;-60
2021/04/30 13:51:36;;;;;;;20.92;6.60;;;18.40;59.60;;;;;;10496584;28;20028;-59
2021/04/30 13:56:40;;;;;;;35.47;7.95;;;18.40;59.90;;;;;;10497174;28;20108;-58
2021/04/30 14:01:40;;;;;;;38.65;8.18;;;18.40;59.70;;;;;;10496086;28;20067;-59
2021/04/30 14:06:41;;;;;;;36.85;8.88;;;18.40;60.20;;;;;;10494234;28;20104;-59
2021/04/30 14:11:42;;;;;;;25.17;7.45;;;18.40;60.90;;;;;;10475781;28;20145;-59
2021/04/30 14:16:44;;;;;;;35.35;7.97;;;18.40;59.50;;;;;;10499760;28;20024;-60
2021/04/30 14:21:45;;;;;;;31.42;9.07;;;18.40;60.40;;;;;;10503232;28;20044;-57
2021/04/30 14:26:46;;;;;;;24.85;7.85;;;18.40;60.40;;;;;;10503075;28;20032;-57
2021/04/30 14:31:46;;;;;;;35.70;7.93;;;18.40;61.00;;;;;;10503654;28;20025;-58
2021/04/30 14:36:47;;;;;;;23.15;7.07;;;18.50;63.90;;;;;;10481978;28;20040;-57
2021/04/30 14:41:48;;;;;;;26.65;7.63;;;18.50;62.70;;;;;;10503343;28;20046;-58
2021/04/30 14:46:49;;;;;;;25.73;6.80;;;18.50;62.40;;;;;;10503012;28;20076;-62
2021/04/30 14:51:50;;;;;;;26.60;7.18;;;18.50;62.70;;;;;;10486182;28;20115;-60
2021/04/30 14:56:51;;;;;;;31.48;7.47;;;18.50;62.60;;;;;;10488827;28;20352;-59
2021/04/30 15:01:51;;;;;;;21.80;7.40;;;18.50;62.60;;;;;;10501930;28;20057;-58
2021/04/30 15:06:52;;;;;;;18.88;6.95;;;18.50;62.30;;;;;;10470262;28;20111;-59
2021/04/30 15:11:57;;;;;;;28.58;8.43;;;18.50;62.40;;;;;;10482503;28;20024;-59
2021/04/30 15:17:00;;;;;;;22.38;7.00;;;18.50;62.70;;;;;;10501011;28;20024;-58
2021/04/30 15:22:00;;;;;;;26.58;7.25;;;18.50;62.50;;;;;;10501093;28;20089;-59
2021/04/30 15:27:01;;;;;;;29.30;8.10;;;18.60;61.70;;;;;;10482134;28;20421;-56
2021/04/30 15:32:02;;;;;;;30.30;7.22;;;18.60;60.80;;;;;;10501848;28;20136;-57
2021/04/30 15:37:03;;;;;;;24.08;7.25;;;18.60;60.00;;;;;;10502028;28;20033;-56
2021/04/30 15:42:05;;;;;;;16.27;6.38;;;18.60;59.90;;;;;;10501593;28;20032;-55
2021/04/30 15:47:06;;;;;;;16.60;6.55;;;18.70;59.40;;;;;;10500402;28;20063;-56
2021/04/30 15:52:07;;;;;;;24.00;6.95;;;18.70;60.80;;;;;;10480189;28;20021;-56
2021/04/30 15:57:08;;;;;;;20.92;7.07;;;18.70;62.80;;;;;;10483158;28;20021;-57
2021/04/30 16:02:08;;;;;;;18.05;6.10;;;18.80;62.70;;;;;;10482943;28;20547;-58
2021/04/30 16:07:09;;;;;;;16.30;5.45;;;18.80;62.50;;;;;;10500651;28;20029;-59
2021/04/30 16:12:11;;;;;;;24.75;5.65;;;18.80;62.70;;;;;;10500653;28;20032;-58
2021/04/30 16:17:11;;;;;;;23.08;6.18;;;18.80;62.60;;;;;;10500448;28;20449;-58
2021/04/30 16:22:14;;;;;;;18.70;5.35;;;18.80;62.50;;;;;;10499657;28;20107;-61
2021/04/30 16:27:15;;;;;;;11.30;4.70;;;18.90;62.90;;;;;;10498063;28;20031;-63
2021/04/30 16:32:15;;;;;;;25.35;6.70;;;18.80;62.00;;;;;;10468808;28;20342;-67
2021/04/30 16:37:16;;;;;;;23.50;5.97;;;18.80;62.40;;;;;;10480115;28;20029;-65
2021/04/30 16:42:17;;;;;;;27.83;6.05;;;18.80;62.80;;;;;;10498693;28;20037;-60
2021/04/30 16:47:18;;;;;;;33.92;6.85;;;18.70;63.50;;;;;;10498807;28;20385;-65
2021/04/30 16:52:19;;;;;;;23.40;6.00;;;18.70;65.00;;;;;;10475017;28;20034;-65
2021/04/30 16:57:19;;;;;;;23.95;5.72;;;18.70;63.50;;;;;;10498578;28;20039;-65
2021/04/30 17:02:21;;;;;;;16.75;5.13;;;18.70;63.50;;;;;;10480676;28;20082;-63
2021/04/30 17:07:21;;;;;;;22.15;5.90;;;18.60;63.40;;;;;;10497455;28;20043;-63
2021/04/30 17:12:22;;;;;;;19.25;5.68;;;18.60;63.20;;;;;;10472216;28;20024;-60
2021/04/30 17:17:23;;;;;;;18.75;5.53;;;18.60;63.00;;;;;;10498005;28;20361;-62
2021/04/30 17:22:24;;;;;;;20.50;5.50;;;18.60;62.80;;;;;;10479627;28;20056;-61
2021/04/30 17:27:24;;;;;;;23.98;5.60;;;18.60;62.80;;;;;;10494145;28;20025;-59
2021/04/30 17:32:25;;;;;;;30.95;6.80;;;18.70;62.80;;;;;;10488520;28;20028;-59
2021/04/30 17:37:26;;;;;;;19.77;5.85;;;18.70;62.70;;;;;;10472406;28;20044;-61
2021/04/30 17:42:27;;;;;;;24.88;6.20;;;18.70;62.50;;;;;;10467903;28;20067;-64
2021/04/30 17:47:27;;;;;;;24.75;5.80;;;18.60;62.90;;;;;;10458838;28;20033;-61
2021/04/30 17:52:28;;;;;;;16.48;5.30;;;18.70;62.20;;;;;;10460699;28;20013;-61
2021/04/30 17:57:29;;;;;;;15.48;4.20;;;18.70;62.20;;;;;;10463855;28;20048;-61
2021/04/30 18:02:30;;;;;;;17.42;4.53;;;18.70;62.20;;;;;;10468642;28;20444;-61
2021/04/30 18:07:31;;;;;;;14.23;4.25;;;18.70;62.10;;;;;;10485932;28;20074;-61
2021/04/30 18:12:32;;;;;;;17.75;6.32;;;18.70;62.10;;;;;;10475700;28;20469;-61
2021/04/30 18:17:32;;;;;;;14.93;4.65;;;18.80;62.20;;;;;;10496152;28;20033;-61
2021/04/30 18:22:33;;;;;;;15.27;5.55;;;18.80;62.10;;;;;;10495745;28;20039;-61
2021/04/30 18:27:34;;;;;;;14.95;5.22;;;18.80;62.10;;;;;;10482939;28;20033;-61
2021/04/30 18:32:35;;;;;;;10.63;3.63;;;18.70;62.10;;;;;;10466782;28;20381;-60
2021/04/30 18:37:35;;;;;;;10.43;4.45;;;18.80;62.10;;;;;;10493602;28;20028;-61
2021/04/30 18:42:36;;;;;;;10.20;4.43;;;18.80;62.10;;;;;;10494449;28;20039;-61
2021/04/30 18:47:37;;;;;;;9.90;3.97;;;18.70;62.00;;;;;;10492753;28;20033;-61
2021/04/30 18:52:41;;;;;;;9.50;3.25;;;18.80;62.00;;;;;;10460998;28;20419;-61
2021/04/30 18:57:41;;;;;;;11.07;4.05;;;18.80;62.20;;;;;;10475499;28;20043;-61
2021/04/30 19:02:42;;;;;;;13.82;3.75;;;18.80;62.10;;;;;;10498844;28;20107;-60
2021/04/30 19:07:43;;;;;;;10.50;4.32;;;18.80;61.90;;;;;;10482225;28;20025;-60
2021/04/30 19:12:44;;;;;;;11.40;4.45;;;18.70;61.70;;;;;;10478411;28;20173;-59
2021/04/30 19:17:44;;;;;;;9.48;3.92;;;18.70;61.70;;;;;;10501148;28;20111;-60
2021/04/30 19:22:46;;;;;;;16.55;4.05;;;18.70;62.30;;;;;;10500395;28;20033;-60
2021/04/30 19:27:48;;;;;;;12.77;4.82;;;18.70;61.70;;;;;;10482666;28;20063;-59
2021/04/30 19:32:49;;;;;;;11.63;5.05;;;18.60;61.70;;;;;;10501863;28;20026;-60
2021/04/30 19:37:50;;;;;;;9.68;3.55;;;18.60;61.70;;;;;;10501630;28;20036;-60
2021/04/30 19:42:51;;;;;;;8.07;3.22;;;18.50;61.60;;;;;;10501694;28;20028;-59
2021/04/30 19:47:52;;;;;;;9.23;3.20;;;18.50;61.70;;;;;;10501063;28;20063;-60
2021/04/30 19:52:53;;;;;;;7.68;3.75;;;18.50;61.60;;;;;;10500695;28;20039;-60
2021/04/30 19:57:54;;;;;;;9.90;3.85;;;18.40;61.60;;;;;;10500951;28;20033;-60
2021/04/30 20:02:58;;;;;;;5.50;3.20;;;18.40;61.60;;;;;;10501018;28;20020;-60
2021/04/30 20:07:59;;;;;;;7.82;3.00;;;18.40;61.60;;;;;;10500656;28;20062;-59
2021/04/30 20:13:00;;;;;;;7.72;3.60;;;18.30;61.60;;;;;;10499862;28;20155;-59
2021/04/30 20:18:01;;;;;;;9.90;3.30;;;18.30;61.60;;;;;;10482704;28;20028;-59
2021/04/30 20:23:01;;;;;;;9.43;3.67;;;18.30;61.50;;;;;;10499967;28;20068;-59
2021/04/30 20:28:02;;;;;;;8.70;3.92;;;18.20;61.50;;;;;;10499795;28;20036;-59
2021/04/30 20:33:05;;;;;;;7.32;3.33;;;18.20;61.50;;;;;;10499811;28;20052;-60
2021/04/30 20:38:06;;;;;;;6.55;3.63;;;18.20;61.50;;;;;;10499401;28;20039;-59
2021/04/30 20:43:08;;;;;;;6.95;2.50;;;18.20;61.50;;;;;;10499187;28;20361;-59
2021/04/30 20:48:09;;;;;;;7.78;2.63;;;18.10;61.40;;;;;;10499025;28;20037;-59
2021/04/30 20:53:11;;;;;;;7.38;2.95;;;18.10;61.40;;;;;;10499038;28;20479;-59
2021/04/30 20:58:12;;;;;;;9.80;3.30;;;18.10;61.40;;;;;;10498389;28;20035;-59
2021/04/30 21:03:13;;;;;;;7.93;2.72;;;18.00;61.30;;;;;;10498434;28;20056;-59
2021/04/30 21:08:14;;;;;;;5.15;3.42;;;18.00;61.30;;;;;;10498208;28;20076;-59
2021/04/30 21:18:34;;;;;;;6.43;3.00;;;18.00;61.30;;;;;;10498599;28;20477;-59
2021/04/30 21:23:34;;;;;;;4.57;2.40;;;18.00;61.30;;;;;;10497841;28;20064;-59
2021/04/30 21:28:35;;;;;;;7.10;2.97;;;17.90;61.20;;;;;;10497711;28;20120;-59
2021/04/30 21:33:36;;;;;;;8.40;3.35;;;17.90;61.80;;;;;;10497442;28;20151;-61
2021/04/30 21:38:37;;;;;;;6.30;2.88;;;17.90;61.20;;;;;;10497536;28;20039;-61
2021/04/30 21:43:37;;;;;;;6.25;2.90;;;17.90;61.20;;;;;;10479586;28;20062;-61
2021/04/30 21:48:38;;;;;;;4.20;2.05;;;17.80;61.10;;;;;;10496669;28;20037;-61
2021/04/30 21:53:39;;;;;;;5.22;2.60;;;17.90;61.10;;;;;;10497175;28;20031;-61
2021/04/30 21:58:40;;;;;;;5.28;2.65;;;17.80;61.10;;;;;;10497227;28;20107;-61
2021/04/30 22:03:40;;;;;;;8.98;3.03;;;17.80;61.10;;;;;;10473847;28;20025;-61
2021/04/30 22:08:41;;;;;;;4.40;2.58;;;17.80;61.10;;;;;;10478764;28;20040;-61
2021/04/30 22:13:42;;;;;;;4.75;2.70;;;17.80;61.00;;;;;;10496701;28;20092;-61
2021/04/30 22:18:43;;;;;;;9.25;2.58;;;17.70;61.00;;;;;;10496755;28;20033;-60
2021/04/30 22:23:45;;;;;;;5.18;2.70;;;17.70;61.00;;;;;;10496471;28;20431;-61
2021/04/30 22:28:46;;;;;;;3.55;2.45;;;17.80;61.00;;;;;;10496679;28;20494;-61
2021/04/30 22:33:47;;;;;;;4.22;2.38;;;17.70;60.90;;;;;;10478471;28;20028;-60
2021/04/30 22:38:47;;;;;;;4.50;2.20;;;17.70;60.80;;;;;;10503623;28;20042;-61
2021/04/30 22:43:48;;;;;;;4.95;2.50;;;17.70;60.80;;;;;;10504163;28;20104;-60
2021/04/30 22:48:49;;;;;;;3.80;2.80;;;17.70;60.80;;;;;;10503782;28;20063;-61
2021/04/30 22:53:50;;;;;;;3.03;2.30;;;17.70;60.80;;;;;;10485684;28;20374;-61
2021/04/30 22:58:50;;;;;;;5.30;2.10;;;17.70;60.70;;;;;;10485633;28;20032;-61
2021/04/30 23:03:51;;;;;;;3.88;1.90;;;17.70;60.70;;;;;;10481514;28;20163;-61
2021/04/30 23:08:52;;;;;;;3.25;2.13;;;17.70;60.70;;;;;;10503462;28;20036;-61
2021/04/30 23:13:52;;;;;;;5.90;2.47;;;17.70;60.70;;;;;;10502958;28;20064;-61
2021/04/30 23:18:53;;;;;;;4.35;2.30;;;17.70;60.60;;;;;;10502867;28;20073;-61
2021/04/30 23:23:54;;;;;;;2.92;2.00;;;17.70;60.60;;;;;;10502433;28;20040;-60
2021/04/30 23:28:54;;;;;;;3.95;1.83;;;17.70;60.60;;;;;;10502056;28;20539;-61
2021/04/30 23:33:55;;;;;;;3.17;1.85;;;17.70;60.50;;;;;;10483885;28;20107;-60
2021/04/30 23:38:56;;;;;;;3.03;2.03;;;17.70;60.40;;;;;;10484323;28;20522;-61
2021/04/30 23:43:56;;;;;;;4.47;2.50;;;17.70;60.30;;;;;;10483515;28;20059;-60
2021/04/30 23:48:57;;;;;;;2.67;2.13;;;17.70;60.30;;;;;;10482410;28;20116;-61
2021/04/30 23:53:59;;;;;;;3.55;2.10;;;17.70;60.20;;;;;;10501329;28;20478;-61
2021/04/30 23:59:00;;;;;;;3.75;2.00;;;17.80;60.90;;;;;;10483080;28;20060;-61
